createdAt,value
2018-03-02T00:00:56.781Z,0
2018-03-02T00:02:06.767Z,0
2018-03-02T00:03:16.217Z,0
2018-03-02T00:04:25.664Z,0
2018-03-02T00:05:35.666Z,0
2018-03-02T00:06:45.656Z,0
2018-03-02T00:07:55.643Z,0
2018-03-02T00:09:05.101Z,0
2018-03-02T00:10:14.815Z,0
2018-03-02T00:11:24.795Z,0
2018-03-02T00:12:34.526Z,0
2018-03-02T00:13:44.558Z,0
2018-03-02T00:14:54.549Z,0
2018-03-02T00:16:04.535Z,0
2018-03-02T00:17:14.522Z,0
2018-03-02T00:18:23.969Z,0
2018-03-02T00:19:33.419Z,0
2018-03-02T00:20:43.134Z,0
2018-03-02T00:21:52.852Z,0
2018-03-02T00:23:02.836Z,0
2018-03-02T00:24:12.559Z,0
2018-03-02T00:25:22.544Z,0
2018-03-02T00:26:32.255Z,0
2018-03-02T00:27:41.983Z,0
2018-03-02T00:28:51.961Z,0
2018-03-02T00:30:01.679Z,0
2018-03-02T00:31:11.669Z,0
2018-03-02T00:32:21.692Z,0
2018-03-02T00:33:31.673Z,0
2018-03-02T00:34:41.387Z,0
2018-03-02T00:35:51.372Z,0
2018-03-02T00:37:01.355Z,0
2018-03-02T00:38:11.068Z,0
2018-03-02T00:39:21.045Z,0
2018-03-02T00:40:31.029Z,0
2018-03-02T00:41:41.014Z,0
2018-03-02T00:42:50.829Z,0
2018-03-02T00:44:00.812Z,0
2018-03-02T00:45:10.588Z,0
2018-03-02T00:46:20.575Z,0
2018-03-02T00:47:30.301Z,0
2018-03-02T00:48:40.013Z,0
2018-03-02T00:49:49.734Z,0
2018-03-02T00:50:59.721Z,0
2018-03-02T00:52:09.432Z,0
2018-03-02T00:53:19.152Z,0
2018-03-02T00:54:28.695Z,0
2018-03-02T00:55:38.141Z,0
2018-03-02T00:56:48.117Z,0
2018-03-02T00:57:58.098Z,0
2018-03-02T00:59:08.093Z,0
2018-03-02T01:00:17.808Z,0
2018-03-02T01:01:27.259Z,0
2018-03-02T01:02:36.703Z,0
2018-03-02T01:03:46.415Z,0
2018-03-02T01:04:56.399Z,0
2018-03-02T01:06:06.106Z,0
2018-03-02T01:07:15.834Z,0
2018-03-02T01:08:25.816Z,0
2018-03-02T01:09:35.534Z,0
2018-03-02T01:10:45.250Z,0
2018-03-02T01:11:54.692Z,0
2018-03-02T01:13:04.671Z,0
2018-03-02T01:14:14.647Z,0
2018-03-02T01:15:24.621Z,0
2018-03-02T01:16:34.610Z,0
2018-03-02T01:17:44.585Z,0
2018-03-02T01:18:54.291Z,0
2018-03-02T01:20:04.273Z,0
2018-03-02T01:21:13.985Z,0
2018-03-02T01:22:23.431Z,0
2018-03-02T01:23:33.418Z,0
2018-03-02T01:24:42.868Z,0
2018-03-02T01:25:52.842Z,0
2018-03-02T01:27:02.287Z,0
2018-03-02T01:28:12.269Z,0
2018-03-02T01:29:22.033Z,0
2018-03-02T01:30:32.014Z,0
2018-03-02T01:31:41.999Z,0
2018-03-02T01:32:51.446Z,0
2018-03-02T01:34:01.423Z,0
2018-03-02T01:35:11.139Z,0
2018-03-02T01:36:20.867Z,0
2018-03-02T01:37:30.852Z,0
2018-03-02T01:38:40.566Z,0
2018-03-02T01:39:50.552Z,0
2018-03-02T01:41:00.264Z,0
2018-03-02T01:42:10.240Z,0
2018-03-02T01:43:20.224Z,0
2018-03-02T01:44:29.942Z,0
2018-03-02T01:45:39.921Z,0
2018-03-02T01:46:49.951Z,0
2018-03-02T01:47:59.926Z,0
2018-03-02T01:49:09.644Z,0
2018-03-02T01:50:19.628Z,0
2018-03-02T01:51:29.340Z,0
2018-03-02T01:52:39.316Z,0
2018-03-02T01:53:49.304Z,0
2018-03-02T01:54:59.294Z,0
2018-03-02T01:56:09.004Z,0
2018-03-02T01:57:18.718Z,0
2018-03-02T01:58:28.166Z,0
2018-03-02T01:59:37.348Z,0
2018-03-02T02:00:46.793Z,0
2018-03-02T02:01:56.776Z,0
2018-03-02T02:03:06.220Z,0
2018-03-02T02:04:15.936Z,0
2018-03-02T02:05:25.387Z,0
2018-03-02T02:06:35.099Z,0
2018-03-02T02:07:45.077Z,0
2018-03-02T02:08:55.057Z,0
2018-03-02T02:10:04.503Z,0
2018-03-02T02:11:14.220Z,0
2018-03-02T02:12:23.399Z,0
2018-03-02T02:13:33.387Z,0
2018-03-02T02:14:43.372Z,0
2018-03-02T02:15:52.812Z,0
2018-03-02T02:17:02.521Z,0
2018-03-02T02:18:12.505Z,0
2018-03-02T02:19:22.213Z,0
2018-03-02T02:20:31.395Z,0
2018-03-02T02:21:41.116Z,0
2018-03-02T02:22:51.099Z,0
2018-03-02T02:24:01.083Z,0
2018-03-02T02:25:10.804Z,0
2018-03-02T02:26:20.782Z,0
2018-03-02T02:27:30.501Z,0
2018-03-02T02:28:40.469Z,0
2018-03-02T02:29:50.457Z,0
2018-03-02T02:31:00.174Z,0
2018-03-02T02:32:09.637Z,0
2018-03-02T02:33:19.741Z,0
2018-03-02T02:34:29.467Z,0
2018-03-02T02:35:38.918Z,0
2018-03-02T02:36:48.909Z,0
2018-03-02T02:37:58.899Z,0
2018-03-02T02:39:08.722Z,0
2018-03-02T02:40:18.818Z,0
2018-03-02T02:41:28.613Z,0
2018-03-02T02:42:38.604Z,0
2018-03-02T02:43:48.587Z,0
2018-03-02T02:44:58.579Z,0
2018-03-02T02:46:08.570Z,0
2018-03-02T02:47:18.572Z,0
2018-03-02T02:48:28.559Z,0
2018-03-02T02:49:38.276Z,0
2018-03-02T02:50:48.275Z,0
2018-03-02T02:51:58.275Z,0
2018-03-02T02:53:08.276Z,0
2018-03-02T02:54:18.260Z,0
2018-03-02T02:55:28.247Z,0
2018-03-02T02:56:37.719Z,0
2018-03-02T02:57:47.435Z,0
2018-03-02T02:58:57.414Z,0
2018-03-02T03:00:07.138Z,0
2018-03-02T03:01:16.866Z,0
2018-03-02T03:02:26.863Z,0
2018-03-02T03:03:36.856Z,0
2018-03-02T03:04:46.853Z,0
2018-03-02T03:05:56.572Z,0
2018-03-02T03:07:06.282Z,0
2018-03-02T03:08:15.993Z,0
2018-03-02T03:09:25.966Z,0
2018-03-02T03:10:35.445Z,0
2018-03-02T03:11:45.423Z,0
2018-03-02T03:12:55.400Z,0
2018-03-02T03:14:05.388Z,0
2018-03-02T03:15:15.374Z,0
2018-03-02T03:16:25.087Z,0
2018-03-02T03:17:35.072Z,0
2018-03-02T03:18:44.785Z,0
2018-03-02T03:19:55.015Z,0
2018-03-02T03:21:04.728Z,0
2018-03-02T03:22:14.707Z,0
2018-03-02T03:23:24.419Z,0
2018-03-02T03:24:34.399Z,0
2018-03-02T03:25:44.379Z,0
2018-03-02T03:26:54.093Z,0
2018-03-02T03:28:03.807Z,0
2018-03-02T03:29:13.527Z,0
2018-03-02T03:30:23.257Z,0
2018-03-02T03:31:32.715Z,0
2018-03-02T03:32:42.714Z,0
2018-03-02T03:33:51.889Z,0
2018-03-02T03:35:01.870Z,0
2018-03-02T03:36:11.859Z,0
2018-03-02T03:37:21.144Z,0
2018-03-02T03:38:31.166Z,0
2018-03-02T03:39:40.878Z,0
2018-03-02T03:40:50.858Z,0
2018-03-02T03:42:00.838Z,0
2018-03-02T03:43:10.552Z,0
2018-03-02T03:44:20.262Z,0
2018-03-02T03:45:29.710Z,0
2018-03-02T03:46:39.689Z,0
2018-03-02T03:47:49.663Z,0
2018-03-02T03:48:59.105Z,0
2018-03-02T03:50:09.086Z,0
2018-03-02T03:51:18.938Z,0
2018-03-02T03:52:28.975Z,0
2018-03-02T03:53:38.947Z,0
2018-03-02T03:54:48.388Z,0
2018-03-02T03:55:58.098Z,0
2018-03-02T03:57:07.548Z,0
2018-03-02T03:58:17.528Z,0
2018-03-02T03:59:26.711Z,0
2018-03-02T04:03:27.088Z,0
2018-03-02T04:04:37.071Z,0
2018-03-02T04:05:46.786Z,0
2018-03-02T04:06:56.756Z,0
2018-03-02T04:08:06.745Z,0
2018-03-02T04:09:16.725Z,0
2018-03-02T04:10:26.438Z,0
2018-03-02T04:11:36.430Z,0
2018-03-02T04:12:46.424Z,0
2018-03-02T04:13:55.871Z,0
2018-03-02T04:15:05.849Z,0
2018-03-02T04:16:15.824Z,0
2018-03-02T04:17:25.270Z,0
2018-03-02T04:18:34.720Z,0
2018-03-02T04:19:44.704Z,0
2018-03-02T04:20:54.686Z,0
2018-03-02T04:22:04.134Z,0
2018-03-02T04:23:13.846Z,0
2018-03-02T04:24:23.924Z,0
2018-03-02T04:25:33.914Z,0
2018-03-02T04:26:43.998Z,0
2018-03-02T04:27:53.711Z,0
2018-03-02T04:29:03.687Z,0
2018-03-02T04:30:13.690Z,0
2018-03-02T04:31:23.670Z,0
2018-03-02T04:32:33.382Z,0
2018-03-02T04:33:43.358Z,0
2018-03-02T04:34:53.347Z,0
2018-03-02T04:36:03.322Z,0
2018-03-02T04:37:12.763Z,0
2018-03-02T04:38:22.306Z,0
2018-03-02T04:39:32.290Z,0
2018-03-02T04:40:42.005Z,0
2018-03-02T04:41:51.448Z,0
2018-03-02T04:43:01.157Z,0
2018-03-02T04:44:10.605Z,0
2018-03-02T04:45:20.587Z,0
2018-03-02T04:46:30.357Z,0
2018-03-02T04:47:40.068Z,0
2018-03-02T04:48:50.042Z,0
2018-03-02T04:50:00.028Z,0
2018-03-02T04:51:10.011Z,0
2018-03-02T04:52:20.165Z,0
2018-03-02T04:53:29.882Z,0
2018-03-02T04:54:39.591Z,0
2018-03-02T04:55:49.307Z,0
2018-03-02T04:56:59.022Z,0
2018-03-02T04:58:08.734Z,0
2018-03-02T04:59:18.447Z,0
2018-03-02T05:00:28.431Z,0
2018-03-02T05:01:38.154Z,0
2018-03-02T05:02:48.146Z,0
2018-03-02T05:03:57.865Z,0
2018-03-02T05:05:07.592Z,0
2018-03-02T05:06:17.578Z,0
2018-03-02T05:07:27.561Z,0
2018-03-02T05:08:37.563Z,0
2018-03-02T05:09:47.542Z,0
2018-03-02T05:10:57.520Z,0
2018-03-02T05:12:07.235Z,0
2018-03-02T05:13:16.699Z,0
2018-03-02T05:14:26.671Z,0
2018-03-02T05:15:36.651Z,0
2018-03-02T05:16:46.654Z,0
2018-03-02T05:17:56.643Z,0
2018-03-02T05:19:06.669Z,0
2018-03-02T05:20:16.445Z,0
2018-03-02T05:21:26.434Z,0
2018-03-02T05:22:36.145Z,0
2018-03-02T05:23:46.120Z,0
2018-03-02T05:24:56.099Z,0
2018-03-02T05:26:06.081Z,0
2018-03-02T05:27:16.065Z,0
2018-03-02T05:28:26.096Z,0
2018-03-02T05:29:36.090Z,0
2018-03-02T05:30:46.070Z,0
2018-03-02T05:31:56.060Z,0
2018-03-02T05:33:06.038Z,0
2018-03-02T05:34:15.747Z,0
2018-03-02T05:35:25.725Z,0
2018-03-02T05:36:35.706Z,4
2018-03-02T05:37:45.413Z,4
2018-03-02T05:38:55.406Z,0
2018-03-02T05:40:05.126Z,4
2018-03-02T05:41:14.576Z,4
2018-03-02T05:42:24.297Z,8
2018-03-02T05:43:34.026Z,4
2018-03-02T05:44:44.009Z,8
2018-03-02T05:45:53.538Z,8
2018-03-02T05:47:03.282Z,8
2018-03-02T05:48:13.266Z,8
2018-03-02T05:49:23.246Z,12
2018-03-02T05:50:32.962Z,12
2018-03-02T05:51:42.679Z,16
2018-03-02T05:52:52.705Z,20
2018-03-02T05:54:02.412Z,20
2018-03-02T05:55:11.856Z,28
2018-03-02T05:56:21.302Z,28
2018-03-02T05:57:31.015Z,32
2018-03-02T05:58:40.995Z,40
2018-03-02T05:59:50.707Z,40
2018-03-02T06:01:00.686Z,48
2018-03-02T06:02:10.668Z,56
2018-03-02T06:03:20.384Z,60
2018-03-02T06:04:30.375Z,68
2018-03-02T06:05:40.087Z,80
2018-03-02T06:06:50.125Z,84
2018-03-02T06:08:00.109Z,96
2018-03-02T06:09:09.829Z,108
2018-03-02T06:10:19.540Z,116
2018-03-02T06:11:29.525Z,128
2018-03-02T06:12:39.508Z,140
2018-03-02T06:13:49.490Z,148
2018-03-02T06:14:59.472Z,164
2018-03-02T06:16:09.198Z,176
2018-03-02T06:17:19.284Z,188
2018-03-02T06:18:29.264Z,208
2018-03-02T06:19:38.976Z,220
2018-03-02T06:20:48.689Z,236
2018-03-02T06:21:58.426Z,252
2018-03-02T06:23:07.868Z,272
2018-03-02T06:24:17.858Z,288
2018-03-02T06:25:27.580Z,308
2018-03-02T06:26:37.554Z,328
2018-03-02T06:27:47.531Z,352
2018-03-02T06:28:57.511Z,380
2018-03-02T06:30:07.493Z,404
2018-03-02T06:31:17.205Z,432
2018-03-02T06:32:27.197Z,460
2018-03-02T06:33:37.173Z,492
2018-03-02T06:34:46.882Z,524
2018-03-02T06:35:56.873Z,564
2018-03-02T06:37:06.945Z,604
2018-03-02T06:38:16.660Z,644
2018-03-02T06:39:26.374Z,688
2018-03-02T06:40:36.363Z,736
2018-03-02T06:41:46.333Z,788
2018-03-02T06:42:56.054Z,836
2018-03-02T06:44:05.772Z,896
2018-03-02T06:45:15.506Z,952
2018-03-02T06:46:25.216Z,1004
2018-03-02T06:47:35.203Z,1064
2018-03-02T06:48:44.929Z,1116
2018-03-02T06:49:54.378Z,1176
2018-03-02T06:51:04.098Z,1228
2018-03-02T06:52:13.541Z,1280
2018-03-02T06:53:23.525Z,1328
2018-03-02T06:54:33.503Z,1380
2018-03-02T06:55:43.226Z,1428
2018-03-02T06:56:53.209Z,1484
2018-03-02T06:58:02.655Z,1532
2018-03-02T06:59:12.629Z,1596
2018-03-02T07:00:22.609Z,1648
2018-03-02T07:01:32.593Z,1704
2018-03-02T07:02:42.313Z,1756
2018-03-02T07:03:52.024Z,1812
2018-03-02T07:05:01.745Z,1860
2018-03-02T07:06:11.191Z,1908
2018-03-02T07:07:20.910Z,1948
2018-03-02T07:08:30.354Z,1988
2018-03-02T07:09:39.799Z,2028
2018-03-02T07:10:49.793Z,2064
2018-03-02T07:11:59.240Z,2092
2018-03-02T07:13:09.224Z,2124
2018-03-02T07:14:19.201Z,2156
2018-03-02T07:15:29.184Z,2184
2018-03-02T07:16:39.172Z,2220
2018-03-02T07:17:48.888Z,2260
2018-03-02T07:18:58.601Z,2296
2018-03-02T07:20:08.324Z,2336
2018-03-02T07:21:18.144Z,2372
2018-03-02T07:22:28.130Z,2416
2018-03-02T07:23:37.577Z,2456
2018-03-02T07:24:47.558Z,2500
2018-03-02T07:25:57.269Z,2544
2018-03-02T07:27:07.265Z,2596
2018-03-02T07:28:16.756Z,2652
2018-03-02T07:29:26.561Z,2700
2018-03-02T07:30:36.284Z,2760
2018-03-02T07:31:46.267Z,2816
2018-03-02T07:32:55.979Z,2880
2018-03-02T07:34:05.976Z,2944
2018-03-02T07:35:15.961Z,3012
2018-03-02T07:36:25.963Z,3088
2018-03-02T07:37:35.677Z,3176
2018-03-02T07:38:45.656Z,3256
2018-03-02T07:39:55.376Z,3332
2018-03-02T07:41:04.867Z,3400
2018-03-02T07:42:14.579Z,3468
2018-03-02T07:43:24.293Z,3540
2018-03-02T07:44:34.384Z,3600
2018-03-02T07:45:44.096Z,3656
2018-03-02T07:46:53.821Z,3712
2018-03-02T07:48:03.803Z,3740
2018-03-02T07:49:13.527Z,3780
2018-03-02T07:50:23.238Z,3804
2018-03-02T07:51:32.955Z,3816
2018-03-02T07:52:42.932Z,3800
2018-03-02T07:53:52.919Z,3760
2018-03-02T07:55:02.637Z,3704
2018-03-02T07:56:12.629Z,3648
2018-03-02T07:57:22.349Z,3596
2018-03-02T07:58:32.061Z,3552
2018-03-02T07:59:42.050Z,3520
2018-03-02T08:00:51.770Z,3504
2018-03-02T08:02:01.493Z,3520
2018-03-02T08:03:11.475Z,3560
2018-03-02T08:04:21.391Z,3620
2018-03-02T08:05:31.487Z,3700
2018-03-02T08:06:41.211Z,3800
2018-03-02T08:07:50.937Z,3916
2018-03-02T08:09:00.926Z,4036
2018-03-02T08:10:10.951Z,4164
2018-03-02T08:11:20.663Z,4304
2018-03-02T08:12:30.647Z,4436
2018-03-02T08:13:40.362Z,4560
2018-03-02T08:14:50.363Z,4700
2018-03-02T08:16:00.088Z,4840
2018-03-02T08:17:10.078Z,4972
2018-03-02T08:18:19.794Z,5100
2018-03-02T08:19:29.509Z,5220
2018-03-02T08:20:39.490Z,5324
2018-03-02T08:21:49.482Z,5404
2018-03-02T08:22:59.471Z,5456
2018-03-02T08:24:09.462Z,5476
2018-03-02T08:25:19.446Z,5468
2018-03-02T08:26:29.458Z,5432
2018-03-02T08:27:39.441Z,5368
2018-03-02T08:28:49.160Z,5284
2018-03-02T08:29:59.156Z,5196
2018-03-02T08:31:08.873Z,5108
2018-03-02T08:32:18.593Z,5044
2018-03-02T08:33:28.598Z,5004
2018-03-02T08:34:38.311Z,5004
2018-03-02T08:35:48.029Z,5052
2018-03-02T08:36:58.018Z,5140
2018-03-02T08:38:08.006Z,5268
2018-03-02T08:39:17.463Z,5412
2018-03-02T08:40:27.764Z,5572
2018-03-02T08:41:37.481Z,5736
2018-03-02T08:42:47.476Z,5932
2018-03-02T08:43:57.488Z,6136
2018-03-02T08:45:07.212Z,6360
2018-03-02T08:46:17.199Z,6620
2018-03-02T08:47:26.652Z,6892
2018-03-02T08:48:36.369Z,7180
2018-03-02T08:49:46.350Z,7464
2018-03-02T08:50:56.071Z,7712
2018-03-02T08:52:05.519Z,7904
2018-03-02T08:53:15.240Z,8024
2018-03-02T08:54:25.322Z,8064
2018-03-02T08:55:35.035Z,8056
2018-03-02T08:56:45.033Z,8028
2018-03-02T08:57:55.113Z,8012
2018-03-02T08:59:04.564Z,8024
2018-03-02T09:00:14.694Z,8084
2018-03-02T09:01:24.734Z,8180
2018-03-02T09:02:34.183Z,8312
2018-03-02T09:03:44.182Z,8460
2018-03-02T09:04:54.173Z,8620
2018-03-02T09:06:03.897Z,8780
2018-03-02T09:07:13.352Z,8920
2018-03-02T09:08:23.340Z,9064
2018-03-02T09:09:33.331Z,9196
2018-03-02T09:10:43.045Z,9320
2018-03-02T09:11:53.178Z,9420
2018-03-02T09:13:02.362Z,9508
2018-03-02T09:14:12.080Z,9576
2018-03-02T09:15:21.800Z,9632
2018-03-02T09:16:31.252Z,9680
2018-03-02T09:17:40.971Z,9732
2018-03-02T09:18:50.689Z,9804
2018-03-02T09:20:00.677Z,9912
2018-03-02T09:21:10.133Z,10044
2018-03-02T09:22:19.881Z,10208
2018-03-02T09:23:29.618Z,10392
2018-03-02T09:24:39.611Z,10580
2018-03-02T09:25:49.596Z,10748
2018-03-02T09:26:59.584Z,10900
2018-03-02T09:28:09.570Z,11012
2018-03-02T09:29:19.558Z,11092
2018-03-02T09:30:29.275Z,11112
2018-03-02T09:31:38.999Z,11096
2018-03-02T09:32:48.739Z,11028
2018-03-02T09:33:58.189Z,10916
2018-03-02T09:35:07.638Z,10784
2018-03-02T09:36:17.363Z,10628
2018-03-02T09:37:27.141Z,10488
2018-03-02T09:38:36.858Z,10368
2018-03-02T09:39:46.852Z,10280
2018-03-02T09:40:56.572Z,10232
2018-03-02T09:42:06.324Z,10212
2018-03-02T09:43:16.355Z,10220
2018-03-02T09:44:26.342Z,10256
2018-03-02T09:45:36.071Z,10304
2018-03-02T09:46:45.797Z,10372
2018-03-02T09:47:55.791Z,10456
2018-03-02T09:49:05.781Z,10552
2018-03-02T09:50:15.304Z,10672
2018-03-02T09:51:25.025Z,10808
2018-03-02T09:52:34.748Z,10944
2018-03-02T09:53:44.737Z,11076
2018-03-02T09:54:54.463Z,11216
2018-03-02T09:56:04.469Z,11380
2018-03-02T09:57:14.486Z,11556
2018-03-02T09:58:24.202Z,11728
2018-03-02T09:59:34.196Z,11916
2018-03-02T10:00:44.185Z,12088
2018-03-02T10:01:54.175Z,12252
2018-03-02T10:03:04.187Z,12416
2018-03-02T10:04:14.178Z,12528
2018-03-02T10:05:23.898Z,12664
2018-03-02T10:06:33.357Z,12792
2018-03-02T10:07:43.082Z,12928
2018-03-02T10:08:52.532Z,13068
2018-03-02T10:10:02.252Z,13192
2018-03-02T10:11:12.244Z,13252
2018-03-02T10:12:22.236Z,13360
2018-03-02T10:13:32.226Z,13512
2018-03-02T10:14:41.676Z,13700
2018-03-02T10:15:51.498Z,13892
2018-03-02T10:17:01.550Z,14120
2018-03-02T10:18:11.541Z,14340
2018-03-02T10:19:21.001Z,14528
2018-03-02T10:20:30.999Z,14700
2018-03-02T10:21:40.993Z,14920
2018-03-02T10:22:50.991Z,15068
2018-03-02T10:24:00.979Z,15224
2018-03-02T10:25:10.971Z,15332
2018-03-02T10:26:20.690Z,15404
2018-03-02T10:27:30.678Z,15464
2018-03-02T10:28:40.127Z,15444
2018-03-02T10:29:50.114Z,15324
2018-03-02T10:30:59.841Z,15256
2018-03-02T10:32:09.831Z,15168
2018-03-02T10:33:19.893Z,15140
2018-03-02T10:34:29.621Z,15180
2018-03-02T10:35:39.645Z,15208
2018-03-02T10:36:49.420Z,15304
2018-03-02T10:37:59.149Z,15388
2018-03-02T10:39:08.992Z,15536
2018-03-02T10:40:18.723Z,15400
2018-03-02T10:41:28.500Z,15284
2018-03-02T10:42:38.227Z,15324
2018-03-02T10:43:47.948Z,15332
2018-03-02T10:44:57.402Z,15424
2018-03-02T10:46:07.125Z,15400
2018-03-02T10:47:16.581Z,15392
2018-03-02T10:48:26.572Z,15332
2018-03-02T10:49:36.563Z,15116
2018-03-02T10:50:46.552Z,15168
2018-03-02T10:51:56.274Z,15088
2018-03-02T10:53:06.263Z,14972
2018-03-02T10:54:15.986Z,14900
2018-03-02T10:55:25.724Z,14788
2018-03-02T10:56:35.456Z,14612
2018-03-02T10:57:45.199Z,14520
2018-03-02T10:58:55.198Z,14332
2018-03-02T11:00:04.386Z,14156
2018-03-02T11:01:14.111Z,14208
2018-03-02T11:02:23.604Z,14348
2018-03-02T11:03:33.335Z,14248
2018-03-02T11:04:42.791Z,14512
2018-03-02T11:05:52.794Z,14456
2018-03-02T11:07:02.524Z,14756
2018-03-02T11:08:12.254Z,15640
2018-03-02T11:09:22.243Z,19200
2018-03-02T11:10:31.966Z,21088
2018-03-02T11:11:41.700Z,23168
2018-03-02T11:12:51.425Z,22720
2018-03-02T11:14:01.150Z,22080
2018-03-02T11:15:10.611Z,21696
2018-03-02T11:16:20.606Z,21056
2018-03-02T11:17:30.058Z,21920
2018-03-02T11:18:39.515Z,23904
2018-03-02T11:19:49.505Z,23648
2018-03-02T11:20:58.996Z,23840
2018-03-02T11:22:08.998Z,25184
2018-03-02T11:23:18.730Z,25792
2018-03-02T11:24:28.464Z,26144
2018-03-02T11:25:38.287Z,24288
2018-03-02T11:26:48.016Z,22400
2018-03-02T11:27:58.009Z,23232
2018-03-02T11:29:07.475Z,24416
2018-03-02T11:30:17.465Z,24416
2018-03-02T11:31:27.458Z,24096
2018-03-02T11:32:37.185Z,23840
2018-03-02T11:33:46.912Z,22560
2018-03-02T11:34:56.911Z,22304
2018-03-02T11:36:06.917Z,22368
2018-03-02T11:37:16.922Z,22176
2018-03-02T11:38:26.378Z,21856
2018-03-02T11:39:36.104Z,21600
2018-03-02T11:40:45.941Z,22304
2018-03-02T11:41:55.667Z,22112
2018-03-02T11:43:04.861Z,21568
2018-03-02T11:44:14.861Z,20800
2018-03-02T11:45:24.864Z,20512
2018-03-02T11:46:34.607Z,20576
2018-03-02T11:47:44.611Z,20032
2018-03-02T11:48:54.450Z,19904
2018-03-02T11:50:04.188Z,19424
2018-03-02T11:51:13.910Z,18944
2018-03-02T11:52:23.914Z,18272
2018-03-02T11:53:33.643Z,18176
2018-03-02T11:54:43.640Z,17728
2018-03-02T11:55:53.374Z,17056
2018-03-02T11:57:03.380Z,16512
2018-03-02T11:58:12.848Z,16048
2018-03-02T11:59:22.846Z,15752
2018-03-02T12:00:32.910Z,15552
2018-03-02T12:01:42.636Z,15576
2018-03-02T12:02:52.389Z,15644
2018-03-02T12:04:02.119Z,16048
2018-03-02T12:05:11.049Z,16800
2018-03-02T12:06:20.783Z,16896
2018-03-02T12:07:30.510Z,16864
2018-03-02T12:08:40.261Z,16640
2018-03-02T12:09:49.981Z,16112
2018-03-02T12:10:59.972Z,15788
2018-03-02T12:12:09.799Z,15564
2018-03-02T12:13:19.832Z,15292
2018-03-02T12:14:29.831Z,15096
2018-03-02T12:15:39.567Z,14892
2018-03-02T12:16:49.692Z,14684
2018-03-02T12:17:59.735Z,14504
2018-03-02T12:19:09.464Z,14320
2018-03-02T12:20:19.491Z,14240
2018-03-02T12:21:28.952Z,14184
2018-03-02T12:22:39.007Z,14156
2018-03-02T12:23:48.417Z,14060
2018-03-02T12:24:58.141Z,14076
2018-03-02T12:26:08.132Z,14096
2018-03-02T12:27:17.591Z,14068
2018-03-02T12:28:27.731Z,14016
2018-03-02T12:29:37.473Z,13948
2018-03-02T12:30:46.667Z,13884
2018-03-02T12:31:56.669Z,13776
2018-03-02T12:33:06.666Z,13716
2018-03-02T12:34:16.437Z,13676
2018-03-02T12:35:25.631Z,13640
2018-03-02T12:36:35.735Z,13624
2018-03-02T12:37:45.581Z,13652
2018-03-02T12:38:55.404Z,13688
2018-03-02T12:40:05.131Z,13608
2018-03-02T12:41:14.859Z,13588
2018-03-02T12:42:24.844Z,13512
2018-03-02T12:43:34.841Z,13504
2018-03-02T12:44:44.384Z,13440
2018-03-02T12:45:54.370Z,13316
2018-03-02T12:47:04.372Z,13212
2018-03-02T12:48:14.401Z,13140
2018-03-02T12:49:24.506Z,13152
2018-03-02T12:50:34.227Z,13188
2018-03-02T12:51:43.679Z,13256
2018-03-02T12:52:53.406Z,13292
2018-03-02T12:54:03.457Z,13320
2018-03-02T12:55:13.792Z,13368
2018-03-02T12:56:23.520Z,13476
2018-03-02T12:57:33.520Z,13628
2018-03-02T12:58:43.508Z,13768
2018-03-02T12:59:53.238Z,14012
2018-03-02T13:01:03.234Z,14192
2018-03-02T13:02:12.957Z,14236
2018-03-02T13:03:22.415Z,14316
2018-03-02T13:04:32.412Z,14384
2018-03-02T13:05:42.402Z,14388
2018-03-02T13:06:51.858Z,14356
2018-03-02T13:08:01.856Z,14296
2018-03-02T13:09:11.886Z,14128
2018-03-02T13:10:21.344Z,13928
2018-03-02T13:11:31.337Z,13684
2018-03-02T13:12:41.062Z,13412
2018-03-02T13:13:50.798Z,13116
2018-03-02T13:15:00.257Z,12828
2018-03-02T13:16:09.982Z,12548
2018-03-02T13:17:19.448Z,12288
2018-03-02T13:18:29.176Z,12072
2018-03-02T13:19:38.642Z,11880
2018-03-02T13:20:48.364Z,11740
2018-03-02T13:21:58.096Z,11624
2018-03-02T13:23:08.085Z,11528
2018-03-02T13:24:17.810Z,11444
2018-03-02T13:25:27.826Z,11376
2018-03-02T13:26:37.824Z,11324
2018-03-02T13:27:47.818Z,11284
2018-03-02T13:28:57.545Z,11240
2018-03-02T13:30:07.544Z,11192
2018-03-02T13:31:17.337Z,11128
2018-03-02T13:32:26.801Z,11072
2018-03-02T13:33:36.792Z,11016
2018-03-02T13:34:46.784Z,10964
2018-03-02T13:35:56.781Z,10916
2018-03-02T13:37:06.240Z,10880
2018-03-02T13:38:16.241Z,10864
2018-03-02T13:39:25.547Z,10860
2018-03-02T13:40:35.014Z,10868
2018-03-02T13:41:45.008Z,10872
2018-03-02T13:42:54.764Z,10904
2018-03-02T13:44:04.536Z,10932
2018-03-02T13:45:14.533Z,10916
2018-03-02T13:46:24.527Z,10876
2018-03-02T13:47:33.993Z,10776
2018-03-02T13:48:43.986Z,10648
2018-03-02T13:49:53.994Z,10520
2018-03-02T13:51:03.180Z,10396
2018-03-02T13:52:12.108Z,10284
2018-03-02T13:53:21.300Z,10180
2018-03-02T13:54:31.024Z,10092
2018-03-02T13:55:40.483Z,10020
2018-03-02T13:56:50.478Z,9972
2018-03-02T13:57:59.669Z,9956
2018-03-02T13:59:09.664Z,9932
2018-03-02T14:00:19.170Z,10052
2018-03-02T14:01:29.202Z,10004
2018-03-02T14:02:38.932Z,9948
2018-03-02T14:03:48.665Z,9880
2018-03-02T14:04:58.656Z,9804
2018-03-02T14:06:08.392Z,9720
2018-03-02T14:07:18.120Z,9624
2018-03-02T14:08:27.847Z,9548
2018-03-02T14:09:37.840Z,9504
2018-03-02T14:10:47.830Z,9428
2018-03-02T14:11:57.833Z,9392
2018-03-02T14:13:07.556Z,9332
2018-03-02T14:14:17.696Z,9220
2018-03-02T14:15:27.160Z,9140
2018-03-02T14:16:37.148Z,9032
2018-03-02T14:17:46.608Z,8880
2018-03-02T14:18:56.606Z,8748
2018-03-02T14:20:06.614Z,8624
2018-03-02T14:21:16.081Z,8564
2018-03-02T14:22:25.810Z,8496
2018-03-02T14:23:35.805Z,8496
2018-03-02T14:24:45.804Z,8488
2018-03-02T14:25:55.809Z,8472
2018-03-02T14:27:05.802Z,8392
2018-03-02T14:28:15.258Z,8308
2018-03-02T14:29:25.252Z,8188
2018-03-02T14:30:35.071Z,8056
2018-03-02T14:31:45.065Z,7920
2018-03-02T14:32:54.256Z,7776
2018-03-02T14:34:04.292Z,7628
2018-03-02T14:35:14.305Z,7488
2018-03-02T14:36:24.041Z,7348
2018-03-02T14:37:33.768Z,7212
2018-03-02T14:38:43.766Z,7072
2018-03-02T14:39:53.753Z,6920
2018-03-02T14:41:03.207Z,6776
2018-03-02T14:42:13.215Z,6640
2018-03-02T14:43:22.943Z,6520
2018-03-02T14:44:32.683Z,6432
2018-03-02T14:45:42.673Z,6356
2018-03-02T14:46:52.669Z,6300
2018-03-02T14:48:01.861Z,6244
2018-03-02T14:49:11.588Z,6196
2018-03-02T14:50:21.052Z,5992
2018-03-02T14:51:30.780Z,5924
2018-03-02T14:52:40.568Z,5836
2018-03-02T14:53:50.556Z,5716
2018-03-02T14:55:00.384Z,5580
2018-03-02T14:56:10.130Z,5420
2018-03-02T14:57:20.241Z,5248
2018-03-02T14:58:29.707Z,5052
2018-03-02T14:59:39.701Z,4848
2018-03-02T15:00:49.426Z,4648
2018-03-02T15:01:59.415Z,4460
2018-03-02T15:03:09.150Z,4300
2018-03-02T15:04:19.135Z,4164
2018-03-02T15:05:29.142Z,4056
2018-03-02T15:06:39.299Z,3956
2018-03-02T15:07:49.287Z,3864
2018-03-02T15:08:58.745Z,3788
2018-03-02T15:10:07.669Z,3712
2018-03-02T15:11:17.396Z,3648
2018-03-02T15:12:27.389Z,3588
2018-03-02T15:13:37.386Z,3496
2018-03-02T15:14:46.851Z,3596
2018-03-02T15:15:56.845Z,3572
2018-03-02T15:17:06.581Z,3552
2018-03-02T15:18:16.304Z,3524
2018-03-02T15:19:26.028Z,3492
2018-03-02T15:20:35.754Z,3460
2018-03-02T15:21:45.486Z,3420
2018-03-02T15:22:54.689Z,3364
2018-03-02T15:24:04.684Z,3296
2018-03-02T15:25:14.690Z,3216
2018-03-02T15:26:24.680Z,3132
2018-03-02T15:27:34.134Z,3044
2018-03-02T15:28:43.590Z,2964
2018-03-02T15:29:52.777Z,2900
2018-03-02T15:31:02.541Z,2844
2018-03-02T15:32:12.592Z,2792
2018-03-02T15:33:22.643Z,2740
2018-03-02T15:34:32.409Z,2684
2018-03-02T15:35:42.145Z,2624
2018-03-02T15:36:51.873Z,2564
2018-03-02T15:38:01.591Z,2496
2018-03-02T15:39:11.580Z,2420
2018-03-02T15:40:21.310Z,2340
2018-03-02T15:41:31.042Z,2268
2018-03-02T15:42:41.044Z,2200
2018-03-02T15:43:51.037Z,2128
2018-03-02T15:45:00.760Z,2060
2018-03-02T15:46:10.487Z,1996
2018-03-02T15:47:20.824Z,1928
2018-03-02T15:48:30.834Z,1868
2018-03-02T15:49:41.059Z,1804
2018-03-02T15:50:51.042Z,1748
2018-03-02T15:52:01.025Z,1688
2018-03-02T15:53:10.748Z,1628
2018-03-02T15:54:20.756Z,1576
2018-03-02T15:55:30.209Z,1528
2018-03-02T15:56:40.205Z,1476
2018-03-02T15:57:49.929Z,1428
2018-03-02T15:58:59.646Z,1384
2018-03-02T16:00:09.654Z,1340